Nearby METAR Reports

Aktualna pogoda na lotniskach (dane METAR)

 

EPGD - Gdansk/Rebiechow, Poland
Distance from station: ENE 27mi, 44km
Updated: Tue, 05-Jul-2022 1:30am PDT
Partly Cloudy
Partly Cloudy
 Wind from SSW
Wind: SSW 7 mph , 11 km/h
Temperature: 70°F , 21°C
Dew Point: 52°F , 11°C
Humidity: 53%
Barometer: 30.09 inHg , 1019 hPa
Clouds: Partly Cloudy
Visibility: 6 miles , 10 km
Cloud details: Partly Cloudy 4200 ft
2022/07/05 08:30 EPGD 050830Z 21006KT 190V260 9999 SCT042 21/11 Q1019
EPSC - Szczecin/Golenio, Poland
Distance from station: WSW 128mi, 205km
Updated: Tue, 05-Jul-2022 1:30am PDT
Few Clouds
Few Clouds
 Wind from WSW
Wind: WSW 8 mph , 13 km/h
Temperature: 68°F , 20°C
Dew Point: 52°F , 11°C
Humidity: 56%
Barometer: 30.12 inHg , 1020 hPa
Clouds: Few Clouds
Visibility: 6 miles , 10 km
Cloud details: Few Clouds 4900 ft
2022/07/05 08:30 EPSC 050830Z 24007KT 200V280 9999 FEW049 20/11 Q1020
 
EPPO - Poznan/Lawica, Poland
Distance from station: SSW 131mi, 210km
Updated: Tue, 05-Jul-2022 1:30am PDT
Mostly Cloudy
Mostly Cloudy
 Wind from SSE
Wind: SSE 3 mph , 6 km/h
Temperature: 73°F , 23°C
Dew Point: 52°F , 11°C
Humidity: 47%
Barometer: 30.09 inHg , 1019 hPa
Clouds: Mostly Cloudy
Visibility: 6 miles , 10 km
Cloud details: Mostly Cloudy 4400 ft
2022/07/05 08:30 EPPO 050830Z 15003KT 9999 BKN044 23/11 Q1019
EPLL - Lodz/Lublinek, Poland
Distance from station: SSE 184mi, 296km
Updated: Tue, 05-Jul-2022 1:30am PDT
Clear
Clear
 Wind from NNE
Wind: NNE 8 mph , 13 km/h
Temperature: 68°F , 20°C
Dew Point: 59°F , 15°C
Humidity: 73%
Barometer: 30.06 inHg , 1018 hPa
Summary: Clear
Visibility: greater than 7 miles , 10 km
2022/07/05 08:30 EPLL 050830Z 02007KT CAVOK 20/15 Q1018
 
EPWA - Warsaw/Okecie, Poland
Distance from station: SE 191mi, 307km
Updated: Tue, 05-Jul-2022 1:30am PDT
Clear
Clear
 Wind from varies
Wind: varies 5 mph , 7 km/h
Temperature: 75°F , 24°C
Dew Point: 61°F , 16°C
Humidity: 61%
Barometer: 30.06 inHg , 1018 hPa
Summary: Clear
Visibility: greater than 7 miles , 10 km
2022/07/05 08:30 EPWA 050830Z VRB04KT CAVOK 24/16 Q1018 NOSIG
EPWR - Wroclaw/Strachow, Poland
Distance from station: S 219mi, 352km
Updated: Tue, 05-Jul-2022 1:30am PDT
Light rain, Showers, Mostly cloudy
Light rain, Showers, Mostly cloudy
 Wind from varies
Wind: varies 2 mph , 4 km/h
Temperature: 63°F , 17°C
Dew Point: 59°F , 15°C
Humidity: 88%
Barometer: 30.12 inHg , 1020 hPa
Summary: Light rain, Showers
Clouds: Mostly Cloudy
Visibility: 6 miles , 10 km
Cloud details: Few Clouds 3000 ft
Mostly Cloudy 4000 ft
2022/07/05 08:30 EPWR 050830Z VRB02KT 9999 -SHRA FEW030 BKN040CB 17/15 Q1020 RESHRA

Metar display script from Saratoga-Weather.org